createdAt,value
2017-08-07T00:00:56.646Z,0
2017-08-07T00:01:58.043Z,0
2017-08-07T00:02:59.443Z,0
2017-08-07T00:04:00.835Z,0
2017-08-07T00:05:02.232Z,0
2017-08-07T00:06:03.640Z,0
2017-08-07T00:07:05.050Z,0
2017-08-07T00:08:06.449Z,0
2017-08-07T00:09:07.849Z,0
2017-08-07T00:10:09.245Z,0
2017-08-07T00:11:10.643Z,0
2017-08-07T00:12:12.045Z,0
2017-08-07T00:13:13.443Z,0
2017-08-07T00:14:14.842Z,0
2017-08-07T00:15:16.245Z,0
2017-08-07T00:16:17.660Z,0
2017-08-07T00:17:19.045Z,0
2017-08-07T00:18:20.443Z,0
2017-08-07T00:19:21.838Z,0
2017-08-07T00:20:23.266Z,0
2017-08-07T00:21:24.664Z,0
2017-08-07T00:22:26.061Z,0
2017-08-07T00:23:27.454Z,0
2017-08-07T00:24:28.852Z,0
2017-08-07T00:25:30.249Z,0
2017-08-07T00:26:31.647Z,0
2017-08-07T00:27:33.045Z,0
2017-08-07T00:28:34.447Z,0
2017-08-07T00:29:35.848Z,0
2017-08-07T00:30:37.246Z,0
2017-08-07T00:31:38.641Z,0
2017-08-07T00:32:40.038Z,0
2017-08-07T00:33:41.434Z,0
2017-08-07T00:34:42.829Z,0
2017-08-07T00:35:44.244Z,0
2017-08-07T00:36:45.648Z,0
2017-08-07T00:37:47.033Z,0
2017-08-07T00:38:48.427Z,0
2017-08-07T00:39:49.825Z,0
2017-08-07T00:40:51.219Z,0
2017-08-07T00:41:52.619Z,0
2017-08-07T00:42:54.015Z,0
2017-08-07T00:43:55.415Z,0
2017-08-07T00:44:56.812Z,0
2017-08-07T00:45:58.206Z,0
2017-08-07T00:46:59.600Z,0
2017-08-07T00:48:01.011Z,0
2017-08-07T00:49:02.418Z,0
2017-08-07T00:50:03.817Z,0
2017-08-07T00:51:05.218Z,0
2017-08-07T00:52:06.615Z,0
2017-08-07T00:53:08.013Z,0
2017-08-07T00:54:09.410Z,0
2017-08-07T00:55:10.807Z,0
2017-08-07T00:56:12.212Z,0
2017-08-07T00:57:13.609Z,0
2017-08-07T00:58:15.011Z,0
2017-08-07T00:59:16.406Z,0
2017-08-07T01:00:17.801Z,0
2017-08-07T01:01:19.199Z,0
2017-08-07T01:02:20.595Z,0
2017-08-07T01:03:21.998Z,0
2017-08-07T01:04:23.397Z,0
2017-08-07T01:05:24.793Z,0
2017-08-07T01:06:26.188Z,0
2017-08-07T01:07:27.582Z,0
2017-08-07T01:08:28.980Z,0
2017-08-07T01:09:30.376Z,0
2017-08-07T01:10:31.774Z,0
2017-08-07T01:11:33.173Z,0
2017-08-07T01:12:34.575Z,0
2017-08-07T01:13:35.969Z,0
2017-08-07T01:14:37.364Z,0
2017-08-07T01:15:38.765Z,0
2017-08-07T01:16:40.169Z,0
2017-08-07T01:17:41.564Z,0
2017-08-07T01:18:42.981Z,0
2017-08-07T01:19:44.399Z,0
2017-08-07T01:20:45.785Z,0
2017-08-07T01:21:47.176Z,0
2017-08-07T01:22:48.572Z,0
2017-08-07T01:23:49.971Z,0
2017-08-07T01:24:51.369Z,0
2017-08-07T01:25:52.769Z,0
2017-08-07T01:26:54.173Z,0
2017-08-07T01:27:55.564Z,0
2017-08-07T01:28:56.959Z,0
2017-08-07T01:29:58.354Z,0
2017-08-07T01:30:59.751Z,0
2017-08-07T01:32:01.147Z,0
2017-08-07T01:33:02.547Z,0
2017-08-07T01:34:03.943Z,0
2017-08-07T01:35:05.340Z,0
2017-08-07T01:36:06.738Z,0
2017-08-07T01:37:08.133Z,0
2017-08-07T01:38:09.528Z,0
2017-08-07T01:39:10.931Z,0
2017-08-07T01:40:12.329Z,0
2017-08-07T01:41:13.728Z,0
2017-08-07T01:42:15.118Z,0
2017-08-07T01:43:16.533Z,0
2017-08-07T01:44:17.938Z,0
2017-08-07T01:45:19.336Z,0
2017-08-07T01:46:20.734Z,0
2017-08-07T01:47:22.130Z,0
2017-08-07T01:48:23.529Z,0
2017-08-07T01:49:24.926Z,0
2017-08-07T01:50:26.340Z,0
2017-08-07T01:51:27.734Z,0
2017-08-07T01:52:29.133Z,0
2017-08-07T01:53:30.529Z,0
2017-08-07T01:54:31.930Z,0
2017-08-07T01:55:33.331Z,0
2017-08-07T01:56:34.722Z,0
2017-08-07T01:57:36.118Z,0
2017-08-07T01:58:37.513Z,0
2017-08-07T01:59:38.918Z,0
2017-08-07T02:00:40.314Z,0
2017-08-07T02:01:41.714Z,0
2017-08-07T02:02:43.112Z,0
2017-08-07T02:03:44.504Z,0
2017-08-07T02:04:45.901Z,0
2017-08-07T02:05:47.301Z,0
2017-08-07T02:06:48.693Z,0
2017-08-07T02:07:50.093Z,0
2017-08-07T02:08:51.497Z,0
2017-08-07T02:09:52.896Z,0
2017-08-07T02:10:54.285Z,0
2017-08-07T02:11:55.689Z,0
2017-08-07T02:12:57.085Z,0
2017-08-07T02:13:58.481Z,0
2017-08-07T02:14:59.878Z,0
2017-08-07T02:16:01.274Z,0
2017-08-07T02:17:02.675Z,0
2017-08-07T02:18:04.070Z,0
2017-08-07T02:19:05.463Z,0
2017-08-07T02:20:06.863Z,0
2017-08-07T02:21:08.256Z,0
2017-08-07T02:22:09.657Z,0
2017-08-07T02:23:11.050Z,0
2017-08-07T02:24:12.448Z,0
2017-08-07T02:25:13.846Z,0
2017-08-07T02:26:15.241Z,0
2017-08-07T02:27:16.641Z,0
2017-08-07T02:28:18.043Z,0
2017-08-07T02:29:19.440Z,0
2017-08-07T02:30:20.838Z,0
2017-08-07T02:31:22.238Z,0
2017-08-07T02:32:23.633Z,0
2017-08-07T02:33:25.029Z,0
2017-08-07T02:34:26.422Z,0
2017-08-07T02:35:27.816Z,0
2017-08-07T02:36:29.214Z,0
2017-08-07T02:37:30.613Z,0
2017-08-07T02:38:32.009Z,0
2017-08-07T02:39:33.408Z,0
2017-08-07T02:40:34.801Z,0
2017-08-07T02:41:36.198Z,0
2017-08-07T02:42:37.592Z,0
2017-08-07T02:43:38.992Z,0
2017-08-07T02:44:40.390Z,0
2017-08-07T02:45:41.788Z,0
2017-08-07T02:46:43.181Z,0
2017-08-07T02:47:44.579Z,0
2017-08-07T02:48:45.976Z,0
2017-08-07T02:49:47.372Z,0
2017-08-07T02:50:48.773Z,0
2017-08-07T02:51:50.173Z,0
2017-08-07T02:52:51.570Z,0
2017-08-07T02:53:52.968Z,0
2017-08-07T02:54:54.360Z,0
2017-08-07T02:55:55.756Z,0
2017-08-07T02:56:57.153Z,0
2017-08-07T02:57:58.569Z,0
2017-08-07T02:58:59.966Z,0
2017-08-07T03:00:01.365Z,0
2017-08-07T03:01:02.796Z,0
2017-08-07T03:02:04.195Z,0
2017-08-07T03:03:05.587Z,0
2017-08-07T03:04:06.990Z,0
2017-08-07T03:05:08.385Z,0
2017-08-07T03:06:09.782Z,0
2017-08-07T03:07:11.181Z,0
2017-08-07T03:08:12.576Z,0
2017-08-07T03:09:13.968Z,0
2017-08-07T03:10:15.363Z,0
2017-08-07T03:11:16.766Z,0
2017-08-07T03:12:18.158Z,0
2017-08-07T03:13:19.558Z,0
2017-08-07T03:14:20.957Z,0
2017-08-07T03:15:22.350Z,0
2017-08-07T03:16:23.745Z,0
2017-08-07T03:17:25.141Z,0
2017-08-07T03:18:26.546Z,0
2017-08-07T03:19:27.935Z,0
2017-08-07T03:20:29.331Z,0
2017-08-07T03:21:30.739Z,0
2017-08-07T03:22:32.135Z,0
2017-08-07T03:23:33.536Z,0
2017-08-07T03:24:34.931Z,0
2017-08-07T03:25:36.325Z,0
2017-08-07T03:26:37.722Z,0
2017-08-07T03:27:39.124Z,0
2017-08-07T03:28:40.518Z,0
2017-08-07T03:29:41.914Z,0
2017-08-07T03:30:43.319Z,0
2017-08-07T03:31:44.706Z,0
2017-08-07T03:32:46.097Z,0
2017-08-07T03:33:47.494Z,0
2017-08-07T03:34:48.891Z,0
2017-08-07T03:35:50.291Z,0
2017-08-07T03:36:51.687Z,0
2017-08-07T03:37:53.086Z,0
2017-08-07T03:38:54.483Z,0
2017-08-07T03:39:55.877Z,0
2017-08-07T03:40:57.275Z,0
2017-08-07T03:41:58.675Z,0
2017-08-07T03:43:00.071Z,0
2017-08-07T03:44:01.470Z,0
2017-08-07T03:45:02.862Z,0
2017-08-07T03:46:04.258Z,0
2017-08-07T03:47:05.653Z,0
2017-08-07T03:48:07.052Z,0
2017-08-07T03:49:08.448Z,0
2017-08-07T03:50:09.846Z,0
2017-08-07T03:51:11.244Z,0
2017-08-07T03:52:12.657Z,0
2017-08-07T03:53:14.051Z,0
2017-08-07T03:54:15.448Z,0
2017-08-07T03:55:16.844Z,0
2017-08-07T03:56:18.245Z,0
2017-08-07T03:57:19.647Z,0
2017-08-07T03:58:21.043Z,0
2017-08-07T03:59:22.435Z,0
2017-08-07T04:00:23.835Z,0
2017-08-07T04:01:25.229Z,0
2017-08-07T04:02:26.626Z,0
2017-08-07T04:03:28.026Z,0
2017-08-07T04:04:29.425Z,0
2017-08-07T04:05:30.820Z,0
2017-08-07T04:06:32.214Z,0
2017-08-07T04:07:33.612Z,0
2017-08-07T04:08:35.010Z,0
2017-08-07T04:09:36.409Z,0
2017-08-07T04:10:37.804Z,0
2017-08-07T04:11:39.204Z,0
2017-08-07T04:12:40.599Z,0
2017-08-07T04:13:41.997Z,0
2017-08-07T04:14:43.398Z,0
2017-08-07T04:15:44.794Z,5
2017-08-07T04:16:46.194Z,5
2017-08-07T04:17:47.594Z,5
2017-08-07T04:18:48.997Z,5
2017-08-07T04:19:50.394Z,5
2017-08-07T04:20:51.794Z,5
2017-08-07T04:21:53.187Z,5
2017-08-07T04:22:54.584Z,5
2017-08-07T04:23:55.984Z,5
2017-08-07T04:24:57.391Z,5
2017-08-07T04:25:58.785Z,5
2017-08-07T04:27:00.180Z,5
2017-08-07T04:28:01.580Z,5
2017-08-07T04:29:03.010Z,11
2017-08-07T04:30:04.410Z,11
2017-08-07T04:31:05.806Z,11
2017-08-07T04:32:07.211Z,11
2017-08-07T04:33:08.605Z,11
2017-08-07T04:34:10.005Z,11
2017-08-07T04:35:11.403Z,11
2017-08-07T04:36:12.804Z,11
2017-08-07T04:37:14.741Z,11
2017-08-07T04:38:16.160Z,11
2017-08-07T04:39:17.545Z,11
2017-08-07T04:40:18.945Z,11
2017-08-07T04:41:20.342Z,16
2017-08-07T04:42:21.740Z,16
2017-08-07T04:43:23.136Z,16
2017-08-07T04:44:24.536Z,16
2017-08-07T04:45:25.941Z,16
2017-08-07T04:46:27.340Z,16
2017-08-07T04:47:28.739Z,16
2017-08-07T04:48:30.135Z,16
2017-08-07T04:49:31.533Z,16
2017-08-07T04:50:32.933Z,22
2017-08-07T04:51:34.334Z,22
2017-08-07T04:52:35.733Z,22
2017-08-07T04:53:37.139Z,22
2017-08-07T04:54:38.538Z,22
2017-08-07T04:55:39.942Z,22
2017-08-07T04:56:41.341Z,22
2017-08-07T04:57:42.737Z,22
2017-08-07T04:58:44.139Z,22
2017-08-07T04:59:45.547Z,28
2017-08-07T05:00:46.947Z,28
2017-08-07T05:01:48.357Z,28
2017-08-07T05:02:49.752Z,28
2017-08-07T05:03:51.160Z,28
2017-08-07T05:04:52.597Z,28
2017-08-07T05:05:53.999Z,28
2017-08-07T05:06:55.411Z,28
2017-08-07T05:07:56.811Z,28
2017-08-07T05:08:58.213Z,28
2017-08-07T05:09:59.613Z,33
2017-08-07T05:11:01.034Z,33
2017-08-07T05:12:02.433Z,33
2017-08-07T05:13:03.831Z,33
2017-08-07T05:14:05.301Z,33
2017-08-07T05:15:06.702Z,33
2017-08-07T05:16:08.098Z,33
2017-08-07T05:17:09.495Z,33
2017-08-07T05:18:10.893Z,33
2017-08-07T05:19:12.300Z,33
2017-08-07T05:20:13.701Z,33
2017-08-07T05:21:15.096Z,33
2017-08-07T05:22:16.563Z,33
2017-08-07T05:23:17.935Z,33
2017-08-07T05:24:19.333Z,33
2017-08-07T05:25:20.729Z,33
2017-08-07T05:26:22.131Z,33
2017-08-07T05:27:23.550Z,33
2017-08-07T05:28:24.950Z,39
2017-08-07T05:29:26.351Z,39
2017-08-07T05:30:27.752Z,39
2017-08-07T05:31:29.152Z,39
2017-08-07T05:32:30.572Z,39
2017-08-07T05:33:31.969Z,39
2017-08-07T05:34:33.371Z,39
2017-08-07T05:35:34.774Z,39
2017-08-07T05:36:36.180Z,39
2017-08-07T05:37:37.578Z,39
2017-08-07T05:38:38.976Z,39
2017-08-07T05:39:40.378Z,39
2017-08-07T05:40:41.778Z,39
2017-08-07T05:41:43.179Z,39
2017-08-07T05:42:44.590Z,45
2017-08-07T05:43:45.993Z,45
2017-08-07T05:44:47.391Z,45
2017-08-07T05:45:48.791Z,45
2017-08-07T05:46:50.277Z,45
2017-08-07T05:47:51.668Z,45
2017-08-07T05:48:53.084Z,45
2017-08-07T05:49:54.499Z,45
2017-08-07T05:50:55.900Z,45
2017-08-07T05:51:57.302Z,45
2017-08-07T05:52:58.703Z,45
2017-08-07T05:54:00.101Z,45
2017-08-07T05:55:01.501Z,45
2017-08-07T05:56:02.907Z,45
2017-08-07T05:57:04.306Z,45
2017-08-07T05:58:05.708Z,50
2017-08-07T05:59:07.112Z,50
2017-08-07T06:00:08.513Z,50
2017-08-07T06:01:09.907Z,50
2017-08-07T06:02:11.323Z,50
2017-08-07T06:03:12.718Z,50
2017-08-07T06:04:14.125Z,50
2017-08-07T06:05:15.537Z,50
2017-08-07T06:06:16.943Z,50
2017-08-07T06:07:18.343Z,56
2017-08-07T06:08:19.745Z,56
2017-08-07T06:09:21.144Z,56
2017-08-07T06:10:22.543Z,56
2017-08-07T06:11:23.939Z,56
2017-08-07T06:12:25.344Z,56
2017-08-07T06:13:26.747Z,56
2017-08-07T06:14:28.148Z,61
2017-08-07T06:15:29.548Z,61
2017-08-07T06:16:30.953Z,61
2017-08-07T06:17:32.351Z,61
2017-08-07T06:18:33.752Z,61
2017-08-07T06:19:35.155Z,61
2017-08-07T06:20:36.556Z,61
2017-08-07T06:21:38.002Z,61
2017-08-07T06:22:39.406Z,61
2017-08-07T06:23:40.807Z,61
2017-08-07T06:24:42.208Z,61
2017-08-07T06:25:43.609Z,61
2017-08-07T06:26:45.011Z,61
2017-08-07T06:27:46.413Z,61
2017-08-07T06:28:47.814Z,61
2017-08-07T06:29:49.214Z,61
2017-08-07T06:30:50.616Z,61
2017-08-07T06:31:52.013Z,61
2017-08-07T06:32:53.417Z,61
2017-08-07T06:33:54.822Z,61
2017-08-07T06:34:56.223Z,61
2017-08-07T06:35:57.622Z,61
2017-08-07T06:36:59.023Z,61
2017-08-07T06:38:00.425Z,61
2017-08-07T06:39:01.825Z,67
2017-08-07T06:40:03.253Z,67
2017-08-07T06:41:04.654Z,67
2017-08-07T06:42:06.057Z,67
2017-08-07T06:43:07.460Z,67
2017-08-07T06:44:08.863Z,67
2017-08-07T06:45:10.256Z,67
2017-08-07T06:46:11.656Z,73
2017-08-07T06:47:13.059Z,73
2017-08-07T06:48:14.465Z,73
2017-08-07T06:49:15.867Z,73
2017-08-07T06:50:17.265Z,73
2017-08-07T06:51:18.665Z,73
2017-08-07T06:52:20.068Z,67
2017-08-07T06:53:21.469Z,73
2017-08-07T06:54:22.890Z,73
2017-08-07T06:55:24.296Z,73
2017-08-07T06:56:25.702Z,73
2017-08-07T06:57:27.102Z,73
2017-08-07T06:58:28.502Z,73
2017-08-07T06:59:29.906Z,73
2017-08-07T07:00:31.302Z,73
2017-08-07T07:01:32.704Z,73
2017-08-07T07:02:34.111Z,78
2017-08-07T07:03:35.513Z,78
2017-08-07T07:04:36.915Z,78
2017-08-07T07:05:38.313Z,78
2017-08-07T07:06:39.718Z,78
2017-08-07T07:07:41.116Z,78
2017-08-07T07:08:42.518Z,78
2017-08-07T07:09:43.934Z,78
2017-08-07T07:10:45.340Z,73
2017-08-07T07:11:46.736Z,78
2017-08-07T07:12:48.139Z,84
2017-08-07T07:13:49.538Z,84
2017-08-07T07:14:50.940Z,78
2017-08-07T07:15:52.344Z,84
2017-08-07T07:16:53.746Z,84
2017-08-07T07:17:55.151Z,84
2017-08-07T07:18:56.552Z,84
2017-08-07T07:19:57.951Z,84
2017-08-07T07:20:59.354Z,84
2017-08-07T07:22:00.757Z,84
2017-08-07T07:23:02.160Z,84
2017-08-07T07:24:03.580Z,84
2017-08-07T07:25:04.980Z,84
2017-08-07T07:26:06.382Z,90
2017-08-07T07:27:07.781Z,90
2017-08-07T07:28:09.183Z,90
2017-08-07T07:29:10.584Z,90
2017-08-07T07:30:11.988Z,95
2017-08-07T07:31:13.393Z,95
2017-08-07T07:32:14.796Z,95
2017-08-07T07:33:16.197Z,95
2017-08-07T07:34:17.599Z,101
2017-08-07T07:35:19.000Z,101
2017-08-07T07:36:20.405Z,101
2017-08-07T07:37:21.810Z,101
2017-08-07T07:38:23.216Z,101
2017-08-07T07:39:24.637Z,101
2017-08-07T07:40:26.030Z,101
2017-08-07T07:41:27.425Z,101
2017-08-07T07:42:28.874Z,106
2017-08-07T07:43:30.243Z,101
2017-08-07T07:44:31.648Z,101
2017-08-07T07:45:33.098Z,101
2017-08-07T07:46:34.502Z,101
2017-08-07T07:47:35.910Z,101
2017-08-07T07:48:37.309Z,101
2017-08-07T07:49:38.709Z,101
2017-08-07T07:50:40.122Z,101
2017-08-07T07:51:41.524Z,106
2017-08-07T07:52:42.929Z,106
2017-08-07T07:53:44.334Z,106
2017-08-07T07:54:45.739Z,112
2017-08-07T07:55:47.137Z,112
2017-08-07T07:56:48.542Z,112
2017-08-07T07:57:49.946Z,112
2017-08-07T07:58:51.350Z,118
2017-08-07T07:59:53.080Z,118
2017-08-07T08:00:54.480Z,118
2017-08-07T08:01:55.880Z,118
2017-08-07T08:02:57.281Z,112
2017-08-07T08:03:58.686Z,118
2017-08-07T08:05:00.088Z,118
2017-08-07T08:06:01.494Z,118
2017-08-07T08:07:02.898Z,123
2017-08-07T08:08:04.305Z,118
2017-08-07T08:09:05.709Z,123
2017-08-07T08:10:07.108Z,129
2017-08-07T08:11:08.519Z,129
2017-08-07T08:12:09.915Z,129
2017-08-07T08:13:11.331Z,129
2017-08-07T08:14:12.742Z,135
2017-08-07T08:15:14.150Z,135
2017-08-07T08:16:15.551Z,135
2017-08-07T08:17:16.957Z,135
2017-08-07T08:18:18.359Z,135
2017-08-07T08:19:19.764Z,135
2017-08-07T08:20:21.174Z,135
2017-08-07T08:21:22.585Z,140
2017-08-07T08:22:23.989Z,140
2017-08-07T08:23:25.398Z,140
2017-08-07T08:24:26.798Z,146
2017-08-07T08:25:28.204Z,146
2017-08-07T08:26:29.612Z,146
2017-08-07T08:27:31.015Z,151
2017-08-07T08:28:32.422Z,151
2017-08-07T08:29:33.828Z,157
2017-08-07T08:30:35.232Z,157
2017-08-07T08:31:36.633Z,157
2017-08-07T08:32:38.046Z,163
2017-08-07T08:33:39.444Z,157
2017-08-07T08:34:40.856Z,163
2017-08-07T08:35:42.284Z,163
2017-08-07T08:36:43.675Z,168
2017-08-07T08:37:45.080Z,163
2017-08-07T08:38:46.483Z,168
2017-08-07T08:39:47.888Z,163
2017-08-07T08:40:49.292Z,174
2017-08-07T08:41:50.699Z,174
2017-08-07T08:42:52.102Z,180
2017-08-07T08:43:53.506Z,185
2017-08-07T08:44:54.910Z,185
2017-08-07T08:45:56.316Z,191
2017-08-07T08:46:57.721Z,191
2017-08-07T08:47:59.127Z,196
2017-08-07T08:49:00.545Z,202
2017-08-07T08:50:01.950Z,208
2017-08-07T08:51:03.363Z,208
2017-08-07T08:52:04.768Z,208
2017-08-07T08:53:06.167Z,202
2017-08-07T08:54:07.574Z,185
2017-08-07T08:55:08.985Z,180
2017-08-07T08:56:10.391Z,185
2017-08-07T08:57:11.798Z,180
2017-08-07T08:58:13.203Z,174
2017-08-07T08:59:14.608Z,185
2017-08-07T09:00:16.011Z,202
2017-08-07T09:01:17.419Z,196
2017-08-07T09:02:18.837Z,202
2017-08-07T09:03:20.245Z,202
2017-08-07T09:04:21.653Z,202
2017-08-07T09:05:23.077Z,202
2017-08-07T09:06:24.477Z,208
2017-08-07T09:07:25.881Z,208
2017-08-07T09:08:27.292Z,213
2017-08-07T09:09:28.700Z,213
2017-08-07T09:10:30.106Z,213
2017-08-07T09:11:31.514Z,219
2017-08-07T09:12:32.916Z,219
2017-08-07T09:13:34.327Z,219
2017-08-07T09:14:35.729Z,213
2017-08-07T09:15:37.138Z,225
2017-08-07T09:16:38.546Z,225
2017-08-07T09:17:39.956Z,230
2017-08-07T09:18:41.364Z,236
2017-08-07T09:19:42.769Z,236
2017-08-07T09:20:44.173Z,236
2017-08-07T09:21:45.574Z,236
2017-08-07T09:22:46.982Z,225
2017-08-07T09:23:48.385Z,225
2017-08-07T09:24:49.800Z,230
2017-08-07T09:25:51.207Z,213
2017-08-07T09:26:52.614Z,236
2017-08-07T09:27:54.022Z,230
2017-08-07T09:28:55.422Z,241
2017-08-07T09:29:56.829Z,247
2017-08-07T09:30:58.231Z,241
2017-08-07T09:31:59.638Z,258
2017-08-07T09:33:01.046Z,264
2017-08-07T09:34:02.453Z,264
2017-08-07T09:35:03.856Z,270
2017-08-07T09:36:05.269Z,264
2017-08-07T09:37:06.669Z,264
2017-08-07T09:38:08.080Z,270
2017-08-07T09:39:09.488Z,270
2017-08-07T09:40:10.896Z,270
2017-08-07T09:41:12.304Z,275
2017-08-07T09:42:13.720Z,281
2017-08-07T09:43:15.124Z,286
2017-08-07T09:44:16.538Z,286
2017-08-07T09:45:17.936Z,292
2017-08-07T09:46:19.355Z,298
2017-08-07T09:47:20.768Z,298
2017-08-07T09:48:22.194Z,298
2017-08-07T09:49:23.600Z,303
2017-08-07T09:50:25.008Z,298
2017-08-07T09:51:26.419Z,309
2017-08-07T09:52:27.840Z,303
2017-08-07T09:53:29.246Z,298
2017-08-07T09:54:30.654Z,298
2017-08-07T09:55:32.061Z,303
2017-08-07T09:56:33.465Z,298
2017-08-07T09:57:34.872Z,303
2017-08-07T09:58:36.281Z,309
2017-08-07T09:59:37.700Z,309
2017-08-07T10:00:39.104Z,315
2017-08-07T10:01:40.515Z,315
2017-08-07T10:02:41.921Z,315
2017-08-07T10:03:43.946Z,320
2017-08-07T10:04:45.340Z,337
2017-08-07T10:05:46.753Z,331
2017-08-07T10:06:48.154Z,326
2017-08-07T10:07:49.561Z,343
2017-08-07T10:08:50.979Z,348
2017-08-07T10:09:52.381Z,354
2017-08-07T10:10:53.787Z,365
2017-08-07T10:11:55.195Z,365
2017-08-07T10:12:56.601Z,382
2017-08-07T10:13:58.034Z,382
2017-08-07T10:14:59.440Z,365
2017-08-07T10:16:00.849Z,337
2017-08-07T10:17:02.254Z,382
2017-08-07T10:18:03.686Z,393
2017-08-07T10:19:05.089Z,410
2017-08-07T10:20:06.494Z,410
2017-08-07T10:21:07.928Z,421
2017-08-07T10:22:09.312Z,433
2017-08-07T10:23:10.729Z,444
2017-08-07T10:24:12.134Z,450
2017-08-07T10:25:13.540Z,421
2017-08-07T10:26:14.944Z,455
2017-08-07T10:27:16.352Z,466
2017-08-07T10:28:17.765Z,472
2017-08-07T10:29:19.175Z,466
2017-08-07T10:30:20.639Z,461
2017-08-07T10:31:22.058Z,478
2017-08-07T10:32:23.466Z,495
2017-08-07T10:33:24.875Z,511
2017-08-07T10:34:26.283Z,506
2017-08-07T10:35:27.689Z,343
2017-08-07T10:36:29.100Z,545
2017-08-07T10:37:30.508Z,573
2017-08-07T10:38:31.922Z,607
2017-08-07T10:39:33.330Z,630
2017-08-07T10:40:34.734Z,630
2017-08-07T10:41:36.154Z,618
2017-08-07T10:42:37.561Z,613
2017-08-07T10:43:38.962Z,658
2017-08-07T10:44:40.374Z,663
2017-08-07T10:45:41.789Z,675
2017-08-07T10:46:43.197Z,708
2017-08-07T10:47:44.608Z,736
2017-08-07T10:48:46.018Z,478
2017-08-07T10:49:47.427Z,776
2017-08-07T10:50:48.837Z,838
2017-08-07T10:51:50.246Z,607
2017-08-07T10:52:51.661Z,928
2017-08-07T10:53:53.070Z,995
2017-08-07T10:54:54.477Z,1113
2017-08-07T10:55:55.895Z,1153
2017-08-07T10:56:57.299Z,1006
2017-08-07T10:57:58.712Z,1445
2017-08-07T10:59:00.125Z,399
2017-08-07T11:00:01.533Z,371
2017-08-07T11:01:02.943Z,365
2017-08-07T11:02:04.350Z,382
2017-08-07T11:03:05.768Z,354
2017-08-07T11:04:07.175Z,303
2017-08-07T11:05:08.588Z,292
2017-08-07T11:06:10.004Z,826
2017-08-07T11:07:11.421Z,1513
2017-08-07T11:08:12.826Z,1569
2017-08-07T11:09:14.237Z,1496
2017-08-07T11:10:15.646Z,1485
2017-08-07T11:11:17.062Z,1653
2017-08-07T11:12:18.465Z,1490
2017-08-07T11:13:19.886Z,1608
2017-08-07T11:14:21.306Z,1395
2017-08-07T11:15:22.710Z,1546
2017-08-07T11:16:24.132Z,1546
2017-08-07T11:17:25.546Z,1614
2017-08-07T11:18:26.961Z,1552
2017-08-07T11:19:28.372Z,1248
2017-08-07T11:20:29.788Z,1310
2017-08-07T11:21:31.237Z,1440
2017-08-07T11:22:32.645Z,1456
2017-08-07T11:23:34.060Z,562
2017-08-07T11:24:35.468Z,416
2017-08-07T11:25:36.883Z,405
2017-08-07T11:26:38.292Z,365
2017-08-07T11:27:39.707Z,1035
2017-08-07T11:28:41.124Z,990
2017-08-07T11:29:42.528Z,410
2017-08-07T11:30:43.952Z,376
2017-08-07T11:31:45.359Z,309
2017-08-07T11:32:46.779Z,281
2017-08-07T11:33:48.191Z,309
2017-08-07T11:34:49.604Z,1074
2017-08-07T11:35:51.019Z,1226
2017-08-07T11:36:52.433Z,1147
2017-08-07T11:37:53.854Z,1085
2017-08-07T11:38:55.267Z,1248
2017-08-07T11:39:56.684Z,1102
2017-08-07T11:40:58.098Z,1125
2017-08-07T11:41:59.507Z,1136
2017-08-07T11:43:00.926Z,1260
2017-08-07T11:44:02.336Z,1226
2017-08-07T11:45:03.749Z,1198
2017-08-07T11:46:05.166Z,1108
2017-08-07T11:47:06.582Z,1192
2017-08-07T11:48:07.990Z,1220
2017-08-07T11:49:09.407Z,1248
2017-08-07T11:50:10.821Z,1192
2017-08-07T11:51:12.235Z,1164
2017-08-07T11:52:13.648Z,1293
2017-08-07T11:53:15.060Z,1305
2017-08-07T11:54:16.473Z,1113
2017-08-07T11:55:17.892Z,1231
2017-08-07T11:56:19.304Z,1248
2017-08-07T11:57:20.718Z,1265
2017-08-07T11:58:22.135Z,1181
2017-08-07T11:59:23.540Z,1186
2017-08-07T12:00:24.953Z,1215
2017-08-07T12:01:26.365Z,1181
2017-08-07T12:02:27.784Z,1164
2017-08-07T12:03:29.197Z,1170
2017-08-07T12:04:30.614Z,1164
2017-08-07T12:05:32.027Z,1186
2017-08-07T12:06:33.440Z,1125
2017-08-07T12:07:34.856Z,1147
2017-08-07T12:08:36.269Z,1181
2017-08-07T12:09:37.685Z,1175
2017-08-07T12:10:39.101Z,1158
2017-08-07T12:11:40.516Z,1153
2017-08-07T12:12:41.940Z,1141
2017-08-07T12:13:43.343Z,956
2017-08-07T12:14:44.761Z,1085
2017-08-07T12:15:46.172Z,1046
2017-08-07T12:16:47.589Z,1063
2017-08-07T12:17:49.002Z,978
2017-08-07T12:18:50.422Z,1040
2017-08-07T12:19:51.831Z,1046
2017-08-07T12:20:53.269Z,1147
2017-08-07T12:21:54.683Z,1130
2017-08-07T12:22:56.096Z,1063
2017-08-07T12:23:57.514Z,916
2017-08-07T12:24:58.926Z,973
2017-08-07T12:26:00.341Z,933
2017-08-07T12:27:01.755Z,1001
2017-08-07T12:28:03.165Z,967
2017-08-07T12:29:04.579Z,1006
2017-08-07T12:30:05.995Z,1063
2017-08-07T12:31:07.414Z,1035
2017-08-07T12:32:08.827Z,1074
2017-08-07T12:33:10.241Z,1080
2017-08-07T12:34:11.653Z,1102
2017-08-07T12:35:13.246Z,1108
2017-08-07T12:36:14.663Z,1113
2017-08-07T12:37:16.080Z,1153
2017-08-07T12:38:17.493Z,1141
2017-08-07T12:39:18.913Z,1125
2017-08-07T12:40:20.328Z,1158
2017-08-07T12:41:21.740Z,1153
2017-08-07T12:42:23.160Z,1153
2017-08-07T12:43:24.578Z,1147
2017-08-07T12:44:25.989Z,1119
2017-08-07T12:45:27.403Z,1085
2017-08-07T12:46:28.826Z,1125
2017-08-07T12:47:30.240Z,1153
2017-08-07T12:48:31.663Z,1147
2017-08-07T12:49:33.069Z,1181
2017-08-07T12:50:34.503Z,1186
2017-08-07T12:51:35.914Z,1164
2017-08-07T12:52:37.332Z,1085
2017-08-07T12:53:38.756Z,1068
2017-08-07T12:54:40.169Z,1040
2017-08-07T12:55:41.584Z,1091
2017-08-07T12:56:42.997Z,1130
2017-08-07T12:57:44.419Z,1170
2017-08-07T12:58:45.836Z,1063
2017-08-07T12:59:47.255Z,1125
2017-08-07T13:00:48.723Z,1141
2017-08-07T13:01:50.139Z,1018
2017-08-07T13:02:51.553Z,1001
2017-08-07T13:03:52.972Z,1023
2017-08-07T13:04:54.385Z,1147
2017-08-07T13:05:55.799Z,1175
2017-08-07T13:06:57.214Z,1153
2017-08-07T13:07:58.629Z,1147
2017-08-07T13:09:00.051Z,1136
2017-08-07T13:10:01.460Z,1113
2017-08-07T13:11:02.877Z,1164
2017-08-07T13:12:04.300Z,1164
2017-08-07T13:13:05.716Z,1147
2017-08-07T13:14:07.132Z,1113
2017-08-07T13:15:08.549Z,1102
2017-08-07T13:16:09.967Z,1035
2017-08-07T13:17:11.379Z,1153
2017-08-07T13:18:12.826Z,1068
2017-08-07T13:19:14.241Z,1051
2017-08-07T13:20:15.657Z,1141
2017-08-07T13:21:17.072Z,1147
2017-08-07T13:22:18.489Z,1113
2017-08-07T13:23:19.907Z,1119
2017-08-07T13:24:21.321Z,1108
2017-08-07T13:25:22.735Z,1108
2017-08-07T13:26:24.153Z,849
2017-08-07T13:27:25.569Z,1012
2017-08-07T13:28:26.983Z,810
2017-08-07T13:29:28.401Z,950
2017-08-07T13:30:29.815Z,950
2017-08-07T13:31:31.229Z,990
2017-08-07T13:32:32.643Z,1080
2017-08-07T13:33:34.058Z,1102
2017-08-07T13:34:35.480Z,1096
2017-08-07T13:35:36.896Z,1085
2017-08-07T13:36:38.311Z,1080
2017-08-07T13:37:39.731Z,1046
2017-08-07T13:38:41.140Z,1063
2017-08-07T13:39:42.559Z,1057
2017-08-07T13:40:43.973Z,1051
2017-08-07T13:41:45.391Z,1063
2017-08-07T13:42:46.804Z,1057
2017-08-07T13:43:48.226Z,1046
2017-08-07T13:44:49.642Z,1035
2017-08-07T13:45:51.056Z,1012
2017-08-07T13:46:52.471Z,990
2017-08-07T13:47:53.891Z,990
2017-08-07T13:48:55.311Z,990
2017-08-07T13:49:56.746Z,978
2017-08-07T13:50:58.164Z,961
2017-08-07T13:51:59.578Z,967
2017-08-07T13:53:00.992Z,967
2017-08-07T13:54:02.410Z,990
2017-08-07T13:55:03.827Z,973
2017-08-07T13:56:05.241Z,961
2017-08-07T13:57:06.653Z,978
2017-08-07T13:58:08.070Z,967
2017-08-07T13:59:09.512Z,956
2017-08-07T14:00:10.942Z,939
2017-08-07T14:01:12.352Z,922
2017-08-07T14:02:13.779Z,866
2017-08-07T14:03:15.200Z,725
2017-08-07T14:04:16.618Z,753
2017-08-07T14:05:18.036Z,843
2017-08-07T14:06:19.464Z,810
2017-08-07T14:07:20.886Z,871
2017-08-07T14:08:22.300Z,877
2017-08-07T14:09:23.719Z,883
2017-08-07T14:10:25.136Z,888
2017-08-07T14:11:26.545Z,877
2017-08-07T14:12:27.961Z,871
2017-08-07T14:13:29.377Z,821
2017-08-07T14:14:30.941Z,866
2017-08-07T14:15:32.350Z,860
2017-08-07T14:16:33.767Z,855
2017-08-07T14:17:35.180Z,832
2017-08-07T14:18:36.594Z,855
2017-08-07T14:19:38.017Z,832
2017-08-07T14:20:39.437Z,798
2017-08-07T14:21:40.843Z,759
2017-08-07T14:22:42.256Z,675
2017-08-07T14:23:43.669Z,410
2017-08-07T14:24:45.086Z,680
2017-08-07T14:25:46.500Z,691